Time;durP1;ratioP1;P1;durP2;ratioP2;P2;SDS_P1;SDS_P2;PMS_P1;PMS_P2;Temp;Humidity;BMP_temperature;BMP_pressure;BME280_temperature;BME280_humidity;BME280_pressure;Samples;Min_cycle;Max_cycle;Signal;HPM_P1;HPM_P2
2023/07/10 00:01:09;;;;;;;;;;;20.20;99.90;;;;;;5073307;28;19924;-44
2023/07/10 00:03:36;;;;;;;;;;;20.20;99.90;;;;;;5116077;27;19931;-44
2023/07/10 00:06:02;;;;;;;;;;;20.20;99.90;;;;;;5066364;28;19936;-44
2023/07/10 00:08:29;;;;;;;;;;;20.20;99.90;;;;;;5066027;28;19932;-43
2023/07/10 00:10:56;;;;;;;;;;;20.20;99.90;;;;;;5105267;28;20461;-43
2023/07/10 00:13:22;;;;;;;;;;;20.20;99.90;;;;;;5072783;28;19924;-44
2023/07/10 00:15:49;;;;;;;;;;;20.20;99.90;;;;;;5072319;28;19951;-44
2023/07/10 00:18:18;;;;;;;;;;;20.20;99.90;;;;;;5073685;28;19924;-43
2023/07/10 00:20:45;;;;;;;;;;;20.20;99.90;;;;;;5076133;28;19977;-44
2023/07/10 00:23:12;;;;;;;;;;;20.20;99.90;;;;;;5075509;28;20277;-44
2023/07/10 00:25:39;;;;;;;;;;;20.10;99.90;;;;;;5080729;28;19925;-44
2023/07/10 00:28:08;;;;;;;;;;;20.10;99.90;;;;;;5101861;27;19929;-43
2023/07/10 00:30:35;;;;;;;;;;;20.10;99.90;;;;;;5058567;28;20298;-43
2023/07/10 00:33:02;;;;;;;;;;;20.10;99.90;;;;;;5064994;28;19970;-44
2023/07/10 00:35:30;;;;;;;;;;;20.10;99.90;;;;;;5072080;28;19924;-43
2023/07/10 00:38:01;;;;;;;;;;;20.10;99.90;;;;;;5071294;28;19977;-43
2023/07/10 00:40:29;;;;;;;;;;;20.00;99.90;;;;;;5053326;28;19931;-44
2023/07/10 00:42:57;;;;;;;;;;;20.10;99.90;;;;;;5070821;28;20377;-44
2023/07/10 00:45:24;;;;;;;;;;;20.10;99.90;;;;;;5075723;28;19924;-44
2023/07/10 00:47:54;;;;;;;;;;;20.00;99.90;;;;;;5066174;28;19925;-44
2023/07/10 00:50:22;;;;;;;;;;;20.00;99.90;;;;;;5088299;28;19937;-44
2023/07/10 00:52:50;;;;;;;;;;;20.00;99.90;;;;;;5086000;28;19924;-43
2023/07/10 00:55:18;;;;;;;;;;;20.00;99.90;;;;;;5084030;28;20466;-43
2023/07/10 00:57:45;;;;;;;;;;;20.00;99.90;;;;;;5070420;28;20392;-44
2023/07/10 01:00:15;;;;;;;;;;;20.00;99.90;;;;;;5092470;28;20380;-43
2023/07/10 01:02:42;;;;;;;;;;;20.00;99.90;;;;;;5084728;28;19924;-43
2023/07/10 01:05:08;;;;;;;;;;;20.00;99.90;;;;;;5087659;28;19979;-44
2023/07/10 01:07:37;;;;;;;;;;;20.10;99.90;;;;;;5103949;28;19975;-43
2023/07/10 01:10:06;;;;;;;;;;;20.00;99.90;;;;;;5071181;28;19975;-42
2023/07/10 01:12:33;;;;;;;;;;;20.00;99.90;;;;;;5070785;28;20380;-43
2023/07/10 01:14:59;;;;;;;;;;;20.00;99.90;;;;;;5074099;28;19925;-44
2023/07/10 01:17:28;;;;;;;;;;;20.00;99.90;;;;;;5072500;28;19932;-44
2023/07/10 01:19:58;;;;;;;;;;;19.90;99.90;;;;;;5056051;28;19931;-43
2023/07/10 01:22:26;;;;;;;;;;;19.90;99.90;;;;;;5072007;28;20351;-44
2023/07/10 01:24:53;;;;;;;;;;;19.90;99.90;;;;;;5077930;28;20380;-44
2023/07/10 01:27:20;;;;;;;;;;;19.80;99.90;;;;;;5070673;28;19929;-43
2023/07/10 01:29:56;;;;;;;;;;;19.80;99.90;;;;;;5082780;28;19925;-44
2023/07/10 01:32:23;;;;;;;;;;;19.80;99.90;;;;;;5052257;28;20203;-44
2023/07/10 01:34:50;;;;;;;;;;;19.80;99.90;;;;;;5077393;28;19978;-44
2023/07/10 01:37:17;;;;;;;;;;;19.80;99.90;;;;;;5069865;28;19925;-43
2023/07/10 01:39:45;;;;;;;;;;;19.80;99.90;;;;;;5060044;28;19924;-41
2023/07/10 01:42:12;;;;;;;;;;;19.80;99.90;;;;;;5072494;28;19968;-43
2023/07/10 01:44:39;;;;;;;;;;;19.80;99.90;;;;;;5082718;28;19924;-43
2023/07/10 01:47:07;;;;;;;;;;;19.80;99.90;;;;;;5105122;27;19933;-43
2023/07/10 01:49:34;;;;;;;;;;;19.90;99.90;;;;;;5097846;28;19971;-43
2023/07/10 01:52:02;;;;;;;;;;;19.80;99.90;;;;;;5062273;28;20357;-43
2023/07/10 01:54:28;;;;;;;;;;;19.80;99.90;;;;;;5077575;28;19924;-44
2023/07/10 01:56:56;;;;;;;;;;;19.80;99.90;;;;;;5065967;28;19924;-43
2023/07/10 01:59:23;;;;;;;;;;;19.80;99.90;;;;;;5072226;28;20364;-43
2023/07/10 02:01:50;;;;;;;;;;;19.80;99.90;;;;;;5064195;28;19925;-43
2023/07/10 02:04:17;;;;;;;;;;;19.80;99.90;;;;;;5076025;28;19931;-43
2023/07/10 02:06:43;;;;;;;;;;;19.80;99.90;;;;;;5077964;28;19932;-44
2023/07/10 02:09:10;;;;;;;;;;;19.90;99.90;;;;;;5077075;28;19977;-43
2023/07/10 02:11:37;;;;;;;;;;;19.80;99.90;;;;;;5073794;28;19924;-43
2023/07/10 02:14:05;;;;;;;;;;;19.80;99.90;;;;;;5074349;28;19929;-43
2023/07/10 02:16:32;;;;;;;;;;;19.80;99.90;;;;;;5107255;28;20284;-43
2023/07/10 02:18:59;;;;;;;;;;;19.80;99.90;;;;;;5074774;28;19929;-43
2023/07/10 02:21:26;;;;;;;;;;;19.80;99.90;;;;;;5084201;28;20387;-44
2023/07/10 02:23:52;;;;;;;;;;;19.80;99.90;;;;;;5087469;28;20367;-42
2023/07/10 02:26:19;;;;;;;;;;;19.80;99.90;;;;;;5079880;28;19928;-44
2023/07/10 02:28:46;;;;;;;;;;;19.80;99.90;;;;;;5108381;28;19924;-44
2023/07/10 02:31:14;;;;;;;;;;;19.80;99.90;;;;;;5062397;28;19939;-42
2023/07/10 02:33:40;;;;;;;;;;;19.80;99.90;;;;;;5077259;28;20017;-43
2023/07/10 02:36:07;;;;;;;;;;;19.80;99.90;;;;;;5063510;28;20385;-43
2023/07/10 02:38:34;;;;;;;;;;;19.80;99.90;;;;;;5073292;28;19993;-44
2023/07/10 02:41:00;;;;;;;;;;;19.70;99.90;;;;;;5071391;28;20380;-43
2023/07/10 02:43:27;;;;;;;;;;;19.80;99.90;;;;;;5106716;28;19963;-43
2023/07/10 02:45:54;;;;;;;;;;;19.80;99.90;;;;;;5072812;28;20265;-44
2023/07/10 02:48:22;;;;;;;;;;;19.80;99.90;;;;;;5072822;28;19932;-44
2023/07/10 02:50:48;;;;;;;;;;;19.70;99.90;;;;;;5072943;28;19925;-43
2023/07/10 02:53:15;;;;;;;;;;;19.70;99.90;;;;;;5074380;28;20288;-44
2023/07/10 02:55:42;;;;;;;;;;;19.70;99.90;;;;;;5074497;28;19988;-43
2023/07/10 02:58:08;;;;;;;;;;;19.70;99.90;;;;;;5084593;28;20359;-43
2023/07/10 03:00:35;;;;;;;;;;;19.70;99.90;;;;;;5076626;28;19924;-43
2023/07/10 03:03:02;;;;;;;;;;;19.70;99.90;;;;;;5057402;28;19937;-43
2023/07/10 03:05:30;;;;;;;;;;;19.60;99.90;;;;;;5074379;28;19925;-43
2023/07/10 03:07:56;;;;;;;;;;;19.60;99.90;;;;;;5057956;28;19925;-43
2023/07/10 03:10:23;;;;;;;;;;;19.60;99.90;;;;;;5086115;28;19978;-43
2023/07/10 03:12:50;;;;;;;;;;;19.60;99.90;;;;;;5068967;28;19924;-43
2023/07/10 03:15:17;;;;;;;;;;;19.50;99.90;;;;;;5086874;28;19978;-43
2023/07/10 03:17:43;;;;;;;;;;;19.50;99.90;;;;;;5053246;28;19964;-44
2023/07/10 03:20:10;;;;;;;;;;;19.40;99.90;;;;;;5055094;28;19978;-43
2023/07/10 03:22:38;;;;;;;;;;;19.50;99.90;;;;;;5064912;28;20269;-43
2023/07/10 03:25:06;;;;;;;;;;;19.50;99.90;;;;;;5073674;28;19986;-44
2023/07/10 03:27:32;;;;;;;;;;;19.40;99.90;;;;;;5078939;28;20372;-44
2023/07/10 03:29:59;;;;;;;;;;;19.50;99.90;;;;;;5071184;28;19990;-43
2023/07/10 03:32:26;;;;;;;;;;;19.50;99.90;;;;;;5071141;28;19932;-44
2023/07/10 03:34:52;;;;;;;;;;;19.40;99.90;;;;;;5075356;28;19924;-43
2023/07/10 03:37:19;;;;;;;;;;;19.40;99.90;;;;;;5060958;28;19924;-44
2023/07/10 03:39:47;;;;;;;;;;;19.40;99.90;;;;;;5076991;28;19936;-43
2023/07/10 03:42:14;;;;;;;;;;;19.40;99.90;;;;;;5065879;28;20284;-43
2023/07/10 03:44:41;;;;;;;;;;;19.40;99.90;;;;;;5075097;28;19928;-42
2023/07/10 03:47:07;;;;;;;;;;;19.30;99.90;;;;;;5070688;28;20449;-44
2023/07/10 03:49:34;;;;;;;;;;;19.30;99.90;;;;;;5074034;28;19924;-43
2023/07/10 03:52:01;;;;;;;;;;;19.30;99.90;;;;;;5078863;28;20465;-44
2023/07/10 03:54:28;;;;;;;;;;;19.30;99.90;;;;;;5084260;28;19994;-43
2023/07/10 03:56:56;;;;;;;;;;;19.30;99.90;;;;;;5086120;28;19925;-44
2023/07/10 03:59:22;;;;;;;;;;;19.30;99.90;;;;;;5084216;28;20568;-43
2023/07/10 04:01:49;;;;;;;;;;;19.30;99.90;;;;;;5102716;27;19931;-43
2023/07/10 04:04:16;;;;;;;;;;;19.30;99.90;;;;;;5058262;28;19925;-42
2023/07/10 04:06:42;;;;;;;;;;;19.30;99.90;;;;;;5062738;28;19924;-43
2023/07/10 04:09:09;;;;;;;;;;;19.30;99.90;;;;;;5084801;28;19990;-44
2023/07/10 04:11:36;;;;;;;;;;;19.30;99.90;;;;;;5053337;28;20410;-44
2023/07/10 04:14:04;;;;;;;;;;;19.40;99.90;;;;;;5073118;28;19943;-43
2023/07/10 04:16:31;;;;;;;;;;;19.40;99.90;;;;;;5073228;28;20335;-43
2023/07/10 04:18:57;;;;;;;;;;;19.30;99.90;;;;;;5071021;28;20007;-44
2023/07/10 04:21:24;;;;;;;;;;;19.40;99.90;;;;;;5085478;28;19932;-43
2023/07/10 04:23:51;;;;;;;;;;;19.40;99.90;;;;;;5110497;27;19928;-43
2023/07/10 04:26:22;;;;;;;;;;;19.40;99.90;;;;;;5101871;27;20143;-44
2023/07/10 04:28:49;;;;;;;;;;;19.40;99.90;;;;;;5076406;28;19924;-43
2023/07/10 04:31:18;;;;;;;;;;;19.40;99.90;;;;;;5064459;28;19924;-43
2023/07/10 04:33:44;;;;;;;;;;;19.40;99.90;;;;;;5072620;28;19990;-44
2023/07/10 04:36:11;;;;;;;;;;;19.40;99.90;;;;;;5071893;28;19986;-43
2023/07/10 04:38:38;;;;;;;;;;;19.40;99.90;;;;;;5073124;28;20044;-43
2023/07/10 04:41:05;;;;;;;;;;;19.40;99.90;;;;;;5071661;28;19924;-43
2023/07/10 04:43:32;;;;;;;;;;;19.40;99.90;;;;;;5071697;28;19929;-43
2023/07/10 04:45:59;;;;;;;;;;;19.50;99.90;;;;;;5070522;28;19924;-43
2023/07/10 04:48:27;;;;;;;;;;;19.40;99.90;;;;;;5058873;28;19936;-43
2023/07/10 04:50:54;;;;;;;;;;;19.40;99.90;;;;;;5062428;28;20411;-43
2023/07/10 04:53:21;;;;;;;;;;;19.40;99.90;;;;;;5067342;28;20381;-44
2023/07/10 04:55:47;;;;;;;;;;;19.50;99.90;;;;;;5072843;28;20372;-43
2023/07/10 04:58:14;;;;;;;;;;;19.50;99.90;;;;;;5078319;28;19924;-44
2023/07/10 05:00:44;;;;;;;;;;;19.50;99.90;;;;;;5081435;28;20044;-44
2023/07/10 05:03:10;;;;;;;;;;;19.50;99.90;;;;;;5076645;28;19925;-43
2023/07/10 05:05:38;;;;;;;;;;;19.50;99.90;;;;;;5083667;28;19975;-44
2023/07/10 05:08:05;;;;;;;;;;;19.40;99.90;;;;;;5082746;28;19979;-43
2023/07/10 05:10:32;;;;;;;;;;;19.40;99.90;;;;;;5072211;28;19924;-43
2023/07/10 05:12:58;;;;;;;;;;;19.40;99.90;;;;;;5071534;28;19924;-43
2023/07/10 05:15:25;;;;;;;;;;;19.40;99.90;;;;;;5079565;28;20360;-44
2023/07/10 05:17:52;;;;;;;;;;;19.40;99.90;;;;;;5083653;28;19931;-43
2023/07/10 05:20:18;;;;;;;;;;;19.40;99.90;;;;;;5073790;28;19931;-43
2023/07/10 05:22:46;;;;;;;;;;;19.40;99.90;;;;;;5105326;28;20364;-44
2023/07/10 05:25:13;;;;;;;;;;;19.40;99.90;;;;;;5071454;28;19924;-43
2023/07/10 05:27:40;;;;;;;;;;;19.40;99.90;;;;;;5068620;28;19925;-44
2023/07/10 05:30:07;;;;;;;;;;;19.40;99.90;;;;;;5063061;28;19933;-43
2023/07/10 05:32:34;;;;;;;;;;;19.40;99.90;;;;;;5077431;28;19971;-43
2023/07/10 05:35:00;;;;;;;;;;;19.40;99.90;;;;;;5081359;28;19925;-43
2023/07/10 05:37:27;;;;;;;;;;;19.40;99.90;;;;;;5069120;28;20372;-43
2023/07/10 05:39:55;;;;;;;;;;;19.40;99.90;;;;;;5070827;28;19925;-43
2023/07/10 05:42:22;;;;;;;;;;;19.40;99.90;;;;;;5071074;28;19925;-44
2023/07/10 05:44:48;;;;;;;;;;;19.40;99.90;;;;;;5082920;28;19977;-43
2023/07/10 05:47:15;;;;;;;;;;;19.50;99.90;;;;;;5072486;28;19970;-43
2023/07/10 05:49:42;;;;;;;;;;;19.50;99.90;;;;;;5078000;28;20272;-44
2023/07/10 05:52:09;;;;;;;;;;;19.50;99.90;;;;;;5068949;28;19925;-42
2023/07/10 05:54:36;;;;;;;;;;;19.50;99.90;;;;;;5094579;28;20014;-43
2023/07/10 05:57:04;;;;;;;;;;;19.50;99.90;;;;;;5059935;28;19978;-45
2023/07/10 05:59:31;;;;;;;;;;;19.50;99.90;;;;;;5078213;28;20352;-43
2023/07/10 06:01:58;;;;;;;;;;;19.50;99.90;;;;;;5051912;28;19925;-43
2023/07/10 06:04:24;;;;;;;;;;;19.60;99.90;;;;;;5087609;28;20239;-44
2023/07/10 06:06:51;;;;;;;;;;;19.60;99.90;;;;;;5052423;28;19932;-43
2023/07/10 06:09:18;;;;;;;;;;;19.60;99.90;;;;;;5053879;28;19935;-44
2023/07/10 06:11:44;;;;;;;;;;;19.70;99.90;;;;;;5058403;28;19968;-43
2023/07/10 06:14:14;;;;;;;;;;;19.70;99.90;;;;;;5056584;28;20363;-44
2023/07/10 06:16:40;;;;;;;;;;;19.90;99.90;;;;;;5064901;28;20365;-43
2023/07/10 06:19:07;;;;;;;;;;;19.90;99.90;;;;;;5069561;28;20354;-43
2023/07/10 06:21:34;;;;;;;;;;;19.90;99.90;;;;;;5058130;28;19931;-43
2023/07/10 06:24:00;;;;;;;;;;;19.90;99.90;;;;;;5061735;28;19924;-44
2023/07/10 06:26:27;;;;;;;;;;;20.10;99.90;;;;;;5092454;28;19986;-43
2023/07/10 06:28:53;;;;;;;;;;;20.10;99.90;;;;;;5074678;28;19924;-43
2023/07/10 06:31:22;;;;;;;;;;;20.10;99.90;;;;;;5071896;28;19925;-43
2023/07/10 06:33:48;;;;;;;;;;;20.10;99.90;;;;;;5072014;28;20350;-43
2023/07/10 06:36:15;;;;;;;;;;;20.20;99.90;;;;;;5075131;28;19924;-43
2023/07/10 06:38:42;;;;;;;;;;;20.30;99.90;;;;;;5065825;28;20335;-43
2023/07/10 06:41:10;;;;;;;;;;;20.30;99.90;;;;;;5076253;28;20438;-44
2023/07/10 06:43:37;;;;;;;;;;;20.40;99.90;;;;;;5071447;28;19931;-43
2023/07/10 06:46:03;;;;;;;;;;;20.40;99.90;;;;;;5063957;28;19928;-44
2023/07/10 06:48:32;;;;;;;;;;;20.40;99.90;;;;;;5070323;28;20383;-43
2023/07/10 06:51:00;;;;;;;;;;;20.40;99.90;;;;;;5063664;28;20011;-43
2023/07/10 06:53:26;;;;;;;;;;;20.30;99.90;;;;;;5098732;27;19972;-44
2023/07/10 06:55:54;;;;;;;;;;;20.40;99.90;;;;;;5063481;28;19925;-44
2023/07/10 06:58:20;;;;;;;;;;;20.50;99.90;;;;;;5080120;28;19928;-43
2023/07/10 07:01:21;;;;;;;;;;;20.70;99.90;;;;;;5068033;28;20264;-43
2023/07/10 07:03:49;;;;;;;;;;;20.80;99.90;;;;;;5055617;28;20007;-43
2023/07/10 07:06:16;;;;;;;;;;;21.00;99.90;;;;;;5053607;28;19928;-43
2023/07/10 07:08:42;;;;;;;;;;;21.10;99.90;;;;;;5093004;28;19928;-43
2023/07/10 07:11:09;;;;;;;;;;;21.30;99.90;;;;;;5074326;28;19924;-44
2023/07/10 07:13:36;;;;;;;;;;;21.40;99.90;;;;;;5072849;28;19928;-43
2023/07/10 07:16:02;;;;;;;;;;;21.50;99.90;;;;;;5074866;28;19925;-43
2023/07/10 07:18:31;;;;;;;;;;;21.70;99.90;;;;;;5080279;28;19924;-43
2023/07/10 07:20:59;;;;;;;;;;;21.80;99.90;;;;;;5078957;28;20543;-44
2023/07/10 07:23:26;;;;;;;;;;;21.90;99.90;;;;;;5104183;28;19994;-43
2023/07/10 07:25:53;;;;;;;;;;;22.00;99.90;;;;;;5058342;28;19924;-43
2023/07/10 07:28:19;;;;;;;;;;;22.10;99.90;;;;;;5074675;28;19924;-44
2023/07/10 07:30:48;;;;;;;;;;;22.20;99.90;;;;;;5086025;28;19928;-43
2023/07/10 07:33:14;;;;;;;;;;;22.40;99.90;;;;;;5085440;28;19946;-43
2023/07/10 07:35:41;;;;;;;;;;;22.50;99.90;;;;;;5072178;28;20019;-43
2023/07/10 07:38:09;;;;;;;;;;;22.60;99.90;;;;;;5069592;28;19932;-43
2023/07/10 07:40:36;;;;;;;;;;;22.70;99.90;;;;;;5053549;28;19929;-43
2023/07/10 07:43:03;;;;;;;;;;;22.80;99.90;;;;;;5074132;28;19932;-43
2023/07/10 07:45:29;;;;;;;;;;;23.00;99.90;;;;;;5080840;28;19924;-43
2023/07/10 07:47:56;;;;;;;;;;;23.10;99.90;;;;;;5072767;28;19924;-43
2023/07/10 07:50:23;;;;;;;;;;;23.20;99.90;;;;;;5073093;28;19931;-44
2023/07/10 07:52:49;;;;;;;;;;;23.40;99.90;;;;;;5072935;28;19932;-44
2023/07/10 07:55:17;;;;;;;;;;;23.50;99.90;;;;;;5082845;28;19924;-43
2023/07/10 07:57:45;;;;;;;;;;;23.60;99.90;;;;;;5127168;27;19932;-43
2023/07/10 08:00:12;;;;;;;;;;;23.70;99.90;;;;;;5093995;28;19931;-43
2023/07/10 08:02:39;;;;;;;;;;;23.80;99.90;;;;;;5105958;28;20414;-43
2023/07/10 08:05:05;;;;;;;;;;;23.90;99.90;;;;;;5064035;28;19925;-43
2023/07/10 08:07:32;;;;;;;;;;;23.90;99.90;;;;;;5066836;28;19932;-44
2023/07/10 08:09:59;;;;;;;;;;;24.00;99.90;;;;;;5072453;28;19971;-43
2023/07/10 08:12:30;;;;;;;;;;;24.10;99.90;;;;;;5071946;28;19924;-44
2023/07/10 08:14:57;;;;;;;;;;;24.20;99.90;;;;;;5087792;28;19977;-44
2023/07/10 08:17:23;;;;;;;;;;;24.40;99.90;;;;;;5092797;28;19924;-43
2023/07/10 08:19:50;;;;;;;;;;;24.50;99.90;;;;;;5073682;28;19932;-44
2023/07/10 08:22:17;;;;;;;;;;;24.50;99.90;;;;;;5073514;28;19932;-43
2023/07/10 08:24:43;;;;;;;;;;;24.60;99.90;;;;;;5089325;28;19925;-43
2023/07/10 08:27:10;;;;;;;;;;;24.70;99.90;;;;;;5087755;28;19935;-43
2023/07/10 08:29:38;;;;;;;;;;;24.90;99.90;;;;;;5071835;28;19925;-43
2023/07/10 08:32:05;;;;;;;;;;;25.00;99.90;;;;;;5072921;28;19971;-44
2023/07/10 08:34:32;;;;;;;;;;;25.20;99.90;;;;;;5073193;28;19940;-43
2023/07/10 08:36:58;;;;;;;;;;;25.40;99.90;;;;;;5057970;28;19935;-43
2023/07/10 08:39:25;;;;;;;;;;;25.40;99.90;;;;;;5091676;28;19993;-44
2023/07/10 08:41:52;;;;;;;;;;;25.40;99.20;;;;;;5090041;28;19924;-43
2023/07/10 08:44:19;;;;;;;;;;;25.40;99.90;;;;;;5070740;28;20312;-43
2023/07/10 08:46:47;;;;;;;;;;;25.40;99.90;;;;;;5085930;28;19928;-43
2023/07/10 08:49:16;;;;;;;;;;;25.50;99.90;;;;;;5056189;28;19925;-43
2023/07/10 08:51:44;;;;;;;;;;;25.60;99.90;;;;;;5051912;28;19979;-43
2023/07/10 08:54:12;;;;;;;;;;;25.80;99.90;;;;;;5052080;28;20365;-44
2023/07/10 08:56:42;;;;;;;;;;;25.90;99.70;;;;;;5086961;28;20281;-44
2023/07/10 08:59:15;;;;;;;;;;;26.00;99.40;;;;;;5052505;28;20410;-44
2023/07/10 09:01:43;;;;;;;;;;;26.10;98.50;;;;;;5085654;28;19925;-44
2023/07/10 09:04:12;;;;;;;;;;;26.10;98.70;;;;;;5053682;28;19976;-44
2023/07/10 09:06:39;;;;;;;;;;;26.20;97.90;;;;;;5083811;28;19924;-44
2023/07/10 09:09:15;;;;;;;;;;;26.20;97.90;;;;;;5108585;28;19928;-43
2023/07/10 09:11:42;;;;;;;;;;;26.30;98.20;;;;;;5125931;27;19960;-43
2023/07/10 09:14:12;;;;;;;;;;;26.40;97.50;;;;;;5093020;28;19924;-43
2023/07/10 09:16:39;;;;;;;;;;;26.50;96.70;;;;;;5081543;28;19977;-44
2023/07/10 09:19:06;;;;;;;;;;;26.50;97.40;;;;;;5071418;28;19924;-44
2023/07/10 09:21:35;;;;;;;;;;;26.60;97.30;;;;;;5080230;28;20023;-44
2023/07/10 09:24:02;;;;;;;;;;;26.70;97.20;;;;;;5088919;28;19985;-45
2023/07/10 09:26:30;;;;;;;;;;;26.90;95.90;;;;;;5125454;27;19924;-44
2023/07/10 09:29:00;;;;;;;;;;;27.00;96.40;;;;;;5119150;27;19972;-42
2023/07/10 09:31:30;;;;;;;;;;;27.00;94.90;;;;;;5093347;28;20015;-44
2023/07/10 09:33:59;;;;;;;;;;;27.10;95.40;;;;;;5091451;28;19924;-43
2023/07/10 09:36:26;;;;;;;;;;;27.10;94.90;;;;;;5092446;28;19978;-44
2023/07/10 09:38:54;;;;;;;;;;;27.20;94.60;;;;;;5123017;27;19924;-43
2023/07/10 09:41:21;;;;;;;;;;;27.20;95.60;;;;;;5092214;28;20363;-44
2023/07/10 09:43:49;;;;;;;;;;;27.20;94.90;;;;;;5073349;28;19974;-44
2023/07/10 09:46:15;;;;;;;;;;;27.10;95.00;;;;;;5071407;28;19932;-44
2023/07/10 09:48:44;;;;;;;;;;;27.00;95.20;;;;;;5104745;28;20013;-44
2023/07/10 09:51:11;;;;;;;;;;;27.20;95.50;;;;;;5089675;28;19924;-44
2023/07/10 09:53:44;;;;;;;;;;;27.40;93.10;;;;;;5092216;28;19932;-43
2023/07/10 09:56:12;;;;;;;;;;;27.50;93.50;;;;;;5092090;28;19925;-44
2023/07/10 09:58:45;;;;;;;;;;;27.60;94.80;;;;;;5091437;28;19979;-44
2023/07/10 10:01:12;;;;;;;;;;;27.70;94.20;;;;;;5070096;28;19932;-44
2023/07/10 10:03:41;;;;;;;;;;;27.80;93.20;;;;;;5053380;28;19974;-44
2023/07/10 10:06:12;;;;;;;;;;;27.90;93.60;;;;;;5056124;28;19928;-44
2023/07/10 10:08:45;;;;;;;;;;;28.00;93.00;;;;;;5055881;28;19932;-43
2023/07/10 10:11:13;;;;;;;;;;;28.00;92.90;;;;;;5087555;28;19931;-44
2023/07/10 10:13:41;;;;;;;;;;;28.10;92.60;;;;;;5096140;28;19925;-43
2023/07/10 10:16:19;;;;;;;;;;;28.20;92.90;;;;;;5095261;28;20008;-43
2023/07/10 10:18:46;;;;;;;;;;;28.30;92.10;;;;;;5085877;28;20338;-43
2023/07/10 10:21:13;;;;;;;;;;;28.10;92.20;;;;;;5082960;28;20244;-44
2023/07/10 10:23:40;;;;;;;;;;;28.00;92.50;;;;;;5055968;28;19931;-44
2023/07/10 10:26:09;;;;;;;;;;;28.10;92.80;;;;;;5074254;28;19967;-44
2023/07/10 10:28:38;;;;;;;;;;;28.10;91.80;;;;;;5096056;28;19924;-44
2023/07/10 10:31:06;;;;;;;;;;;28.10;91.40;;;;;;5095643;28;19928;-44
2023/07/10 10:33:35;;;;;;;;;;;28.20;91.80;;;;;;5089297;28;19932;-44
2023/07/10 10:36:03;;;;;;;;;;;28.30;91.40;;;;;;5079494;28;19971;-44
2023/07/10 10:38:39;;;;;;;;;;;28.60;91.30;;;;;;5094610;28;19924;-43
2023/07/10 10:41:09;;;;;;;;;;;28.70;91.60;;;;;;5095890;28;20292;-43
2023/07/10 10:43:42;;;;;;;;;;;28.80;90.20;;;;;;5094623;28;19924;-44
2023/07/10 10:46:12;;;;;;;;;;;28.80;90.80;;;;;;5079394;28;19967;-44
2023/07/10 10:48:40;;;;;;;;;;;28.80;90.70;;;;;;5095324;28;19924;-44
2023/07/10 10:51:08;;;;;;;;;;;28.80;89.70;;;;;;5095846;28;20335;-44
2023/07/10 10:53:37;;;;;;;;;;;28.70;87.20;;;;;;5095332;28;20422;-44
2023/07/10 10:56:10;;;;;;;;;;;28.50;89.10;;;;;;5071395;28;19932;-44
2023/07/10 10:58:42;;;;;;;;;;;28.30;89.80;;;;;;5080725;28;19928;-44
2023/07/10 11:01:12;;;;;;;;;;;28.40;86.80;;;;;;5055412;28;20431;-45
2023/07/10 11:03:40;;;;;;;;;;;28.40;87.70;;;;;;5054207;28;19936;-44
2023/07/10 11:06:25;;;;;;;;;;;28.40;87.60;;;;;;5061009;28;19928;-44
2023/07/10 11:08:52;;;;;;;;;;;28.30;87.70;;;;;;5106136;28;20438;-44
2023/07/10 11:11:20;;;;;;;;;;;28.30;87.30;;;;;;5057682;28;19955;-44
2023/07/10 11:13:48;;;;;;;;;;;28.20;85.40;;;;;;5054005;28;19987;-44
2023/07/10 11:16:15;;;;;;;;;;;28.20;88.60;;;;;;5064703;28;19931;-43
2023/07/10 11:18:41;;;;;;;;;;;28.10;87.20;;;;;;5074677;28;19958;-44
2023/07/10 11:21:13;;;;;;;;;;;28.10;87.20;;;;;;5073900;28;19933;-44
2023/07/10 11:23:44;;;;;;;;;;;28.20;88.10;;;;;;5081391;28;19975;-44
2023/07/10 11:26:13;;;;;;;;;;;28.40;86.90;;;;;;5091670;28;19932;-45
2023/07/10 11:28:41;;;;;;;;;;;28.70;86.90;;;;;;5087684;28;19929;-44
2023/07/10 11:31:22;;;;;;;;;;;28.80;85.70;;;;;;5088400;28;19925;-44
2023/07/10 11:33:49;;;;;;;;;;;28.70;82.90;;;;;;5063876;28;19928;-44
2023/07/10 11:36:17;;;;;;;;;;;28.50;85.90;;;;;;5091010;28;19966;-44
2023/07/10 11:38:56;;;;;;;;;;;28.40;85.70;;;;;;5127718;27;19924;-44
2023/07/10 11:41:24;;;;;;;;;;;28.50;86.70;;;;;;5089237;28;19928;-44
2023/07/10 11:43:55;;;;;;;;;;;28.70;86.80;;;;;;5065035;28;19928;-43
2023/07/10 11:46:29;;;;;;;;;;;28.90;83.10;;;;;;5067300;28;19934;-44
2023/07/10 11:49:08;;;;;;;;;;;29.00;84.10;;;;;;5070525;28;19930;-44
2023/07/10 11:51:35;;;;;;;;;;;28.90;82.90;;;;;;5070186;28;19929;-43
2023/07/10 11:54:09;;;;;;;;;;;28.90;83.10;;;;;;5089295;28;19962;-45
2023/07/10 11:56:36;;;;;;;;;;;29.00;82.80;;;;;;5091292;28;20299;-44
2023/07/10 11:59:13;;;;;;;;;;;29.10;82.70;;;;;;5088430;28;19981;-44
2023/07/10 12:01:41;;;;;;;;;;;29.10;79.50;;;;;;5114911;27;19924;-44
2023/07/10 12:04:09;;;;;;;;;;;29.00;80.30;;;;;;5089797;28;19928;-43
2023/07/10 12:06:36;;;;;;;;;;;29.00;79.60;;;;;;5094269;28;19931;-44
2023/07/10 12:09:04;;;;;;;;;;;29.10;79.70;;;;;;5054877;28;19929;-44
2023/07/10 12:11:31;;;;;;;;;;;29.10;80.00;;;;;;5072263;28;19928;-43
2023/07/10 12:14:02;;;;;;;;;;;29.00;78.00;;;;;;5084864;28;20292;-44
2023/07/10 12:16:29;;;;;;;;;;;28.90;77.80;;;;;;5073642;28;19931;-44
2023/07/10 12:19:02;;;;;;;;;;;29.10;77.70;;;;;;5072060;28;19975;-44
2023/07/10 12:21:29;;;;;;;;;;;29.10;76.20;;;;;;5079075;28;20361;-43
2023/07/10 12:23:56;;;;;;;;;;;29.20;79.70;;;;;;5089672;28;19928;-44
2023/07/10 12:26:22;;;;;;;;;;;29.10;76.80;;;;;;5075917;28;19978;-44
2023/07/10 12:28:53;;;;;;;;;;;28.90;78.10;;;;;;5064820;28;19923;-44
2023/07/10 12:31:20;;;;;;;;;;;29.00;78.70;;;;;;5085313;28;19924;-44
2023/07/10 12:33:47;;;;;;;;;;;29.00;78.70;;;;;;5081729;28;19937;-44
2023/07/10 12:36:21;;;;;;;;;;;29.20;78.30;;;;;;5070749;28;20406;-44
2023/07/10 12:38:47;;;;;;;;;;;29.40;76.90;;;;;;5068468;28;20411;-44
2023/07/10 12:41:14;;;;;;;;;;;29.50;77.50;;;;;;5071669;28;19928;-44
2023/07/10 12:43:46;;;;;;;;;;;29.70;77.00;;;;;;5071378;28;19924;-44
2023/07/10 12:46:13;;;;;;;;;;;29.80;77.50;;;;;;5071613;28;19929;-44
2023/07/10 12:48:40;;;;;;;;;;;30.00;76.20;;;;;;5068973;28;19929;-44
2023/07/10 12:51:07;;;;;;;;;;;30.00;74.60;;;;;;5082332;28;20388;-44
2023/07/10 12:53:38;;;;;;;;;;;30.00;74.20;;;;;;5072709;28;19976;-44
2023/07/10 12:56:06;;;;;;;;;;;29.90;72.90;;;;;;5072395;28;19993;-44
2023/07/10 12:58:32;;;;;;;;;;;29.90;74.50;;;;;;5072766;28;19924;-44
2023/07/10 13:01:00;;;;;;;;;;;29.80;74.90;;;;;;5069601;28;19947;-45
2023/07/10 13:03:27;;;;;;;;;;;30.00;75.00;;;;;;5071744;28;20392;-44
2023/07/10 13:05:58;;;;;;;;;;;30.10;74.20;;;;;;5072717;28;20425;-44
2023/07/10 13:08:25;;;;;;;;;;;30.20;75.10;;;;;;5089146;28;20015;-44
2023/07/10 13:10:53;;;;;;;;;;;30.30;74.70;;;;;;5052364;28;19932;-44
2023/07/10 13:13:20;;;;;;;;;;;30.40;74.20;;;;;;5072259;28;19924;-44
2023/07/10 13:15:47;;;;;;;;;;;30.40;73.70;;;;;;5111628;27;19931;-44
2023/07/10 13:18:17;;;;;;;;;;;30.30;74.40;;;;;;5082591;28;20364;-44
2023/07/10 13:20:43;;;;;;;;;;;30.40;73.70;;;;;;5068428;28;19932;-44
2023/07/10 13:23:10;;;;;;;;;;;30.50;73.20;;;;;;5070654;28;19932;-46
2023/07/10 13:25:37;;;;;;;;;;;30.60;73.10;;;;;;5069509;28;20277;-44
2023/07/10 13:28:12;;;;;;;;;;;30.50;71.30;;;;;;5101125;28;19925;-44
2023/07/10 13:30:39;;;;;;;;;;;30.30;72.40;;;;;;5069450;28;19933;-44
2023/07/10 13:33:09;;;;;;;;;;;30.40;71.20;;;;;;5055483;28;20380;-44
2023/07/10 13:35:36;;;;;;;;;;;30.50;71.40;;;;;;5050899;28;19929;-44
2023/07/10 13:38:05;;;;;;;;;;;30.60;71.90;;;;;;5069746;28;20387;-44
2023/07/10 13:40:31;;;;;;;;;;;30.70;69.60;;;;;;5067831;28;20046;-44
2023/07/10 13:42:58;;;;;;;;;;;30.90;72.20;;;;;;5059496;28;19924;-44
2023/07/10 13:45:26;;;;;;;;;;;30.90;67.80;;;;;;5095622;28;19932;-44
2023/07/10 13:47:53;;;;;;;;;;;30.90;67.60;;;;;;5102283;28;19933;-44
2023/07/10 13:50:20;;;;;;;;;;;30.90;66.30;;;;;;5055768;28;19939;-44
2023/07/10 13:52:46;;;;;;;;;;;30.90;67.70;;;;;;5058086;28;19939;-44
2023/07/10 13:55:13;;;;;;;;;;;30.90;66.20;;;;;;5068159;28;19968;-45
2023/07/10 13:57:40;;;;;;;;;;;30.90;66.60;;;;;;5059914;28;19925;-43
2023/07/10 14:00:07;;;;;;;;;;;30.90;65.70;;;;;;5060727;28;19925;-43
2023/07/10 14:02:36;;;;;;;;;;;31.00;66.30;;;;;;5070825;28;19928;-45
2023/07/10 14:05:03;;;;;;;;;;;31.00;65.70;;;;;;5083515;28;19924;-45
2023/07/10 14:07:30;;;;;;;;;;;31.00;64.00;;;;;;5101920;28;20364;-45
2023/07/10 14:09:58;;;;;;;;;;;31.00;65.90;;;;;;5074257;28;19992;-45
2023/07/10 14:12:25;;;;;;;;;;;31.00;63.20;;;;;;5068268;28;20003;-44
2023/07/10 14:14:52;;;;;;;;;;;31.00;64.90;;;;;;5063338;28;19986;-44
2023/07/10 14:17:22;;;;;;;;;;;31.00;63.70;;;;;;5064131;28;19929;-43
2023/07/10 14:19:50;;;;;;;;;;;31.10;62.90;;;;;;5076680;28;19935;-43